createdAt,value
2018-05-01T00:02:18.980Z,66.22
2018-05-01T00:04:47.347Z,67.07
2018-05-01T00:07:15.669Z,66.40
2018-05-01T00:09:43.991Z,65.65
2018-05-01T00:12:12.329Z,65.48
2018-05-01T00:14:40.637Z,65.25
2018-05-01T00:17:09.044Z,65.97
2018-05-01T00:19:37.362Z,65.83
2018-05-01T00:22:05.730Z,66.37
2018-05-01T00:24:34.053Z,66.24
2018-05-01T00:27:02.391Z,66.13
2018-05-01T00:29:30.713Z,66.43
2018-05-01T00:31:59.086Z,67.09
2018-05-01T00:34:27.410Z,66.59
2018-05-01T00:36:55.968Z,66.64
2018-05-01T00:39:24.282Z,66.75
2018-05-01T00:41:52.880Z,66.68
2018-05-01T00:44:21.206Z,68.75
2018-05-01T00:46:49.536Z,69.65
2018-05-01T00:49:17.894Z,68.62
2018-05-01T00:51:46.223Z,70.33
2018-05-01T00:54:14.541Z,71.84
2018-05-01T00:56:42.894Z,75.45
2018-05-01T00:59:11.241Z,78.10
2018-05-01T01:01:39.575Z,70.92
2018-05-01T01:04:07.917Z,73.03
2018-05-01T01:06:36.239Z,72.42
2018-05-01T01:09:04.571Z,74.31
2018-05-01T01:11:33.045Z,72.18
2018-05-01T01:14:01.391Z,74.24
2018-05-01T01:16:29.707Z,77.90
2018-05-01T01:18:58.032Z,78.70
2018-05-01T01:21:26.388Z,79.63
2018-05-01T01:23:54.722Z,79.12
2018-05-01T01:26:23.043Z,79.43
2018-05-01T01:28:51.407Z,79.85
2018-05-01T01:31:19.759Z,80.07
2018-05-01T01:33:48.147Z,80.08
2018-05-01T01:36:16.033Z,78.08
2018-05-01T01:38:44.155Z,80.32
2018-05-01T01:41:11.945Z,77.54
2018-05-01T01:43:39.774Z,73.79
2018-05-01T01:46:07.644Z,70.96
2018-05-01T01:48:35.465Z,71.63
2018-05-01T01:51:03.235Z,70.93
2018-05-01T01:53:31.089Z,71.00
2018-05-01T01:55:58.900Z,73.57
2018-05-01T01:58:26.739Z,72.12
2018-05-01T02:00:54.520Z,72.51
2018-05-01T02:03:22.313Z,72.14
2018-05-01T02:05:50.109Z,74.10
2018-05-01T02:08:17.944Z,71.22
2018-05-01T02:10:45.748Z,71.22
2018-05-01T02:13:13.527Z,76.51
2018-05-01T02:15:41.367Z,77.46
2018-05-01T02:18:09.161Z,77.84
2018-05-01T02:20:36.957Z,82.90
2018-05-01T02:23:04.818Z,84.59
2018-05-01T02:25:32.684Z,82.88
2018-05-01T02:28:00.480Z,82.05
2018-05-01T02:30:28.264Z,83.43
2018-05-01T02:32:56.116Z,82.50
2018-05-01T02:35:23.904Z,82.72
2018-05-01T02:37:51.711Z,81.32
2018-05-01T02:40:19.501Z,78.86
2018-05-01T02:42:47.328Z,78.81
2018-05-01T02:45:15.292Z,80.97
2018-05-01T02:47:43.088Z,80.73
2018-05-01T02:50:10.883Z,84.13
2018-05-01T02:52:38.734Z,79.29
2018-05-01T02:55:06.513Z,81.13
2018-05-01T02:57:34.290Z,83.01
2018-05-01T03:00:02.089Z,81.10
2018-05-01T03:02:29.959Z,76.21
2018-05-01T03:05:00.596Z,80.95
2018-05-01T03:07:28.375Z,81.53
2018-05-01T03:09:56.256Z,80.77
2018-05-01T03:12:24.027Z,82.39
2018-05-01T03:14:51.802Z,83.80
2018-05-01T03:17:19.644Z,85.03
2018-05-01T03:19:47.462Z,85.27
2018-05-01T03:22:15.221Z,86.41
2018-05-01T03:24:42.998Z,87.17
2018-05-01T03:27:10.833Z,85.75
2018-05-01T03:29:38.688Z,88.24
2018-05-01T03:32:06.563Z,88.99
2018-05-01T03:34:34.397Z,88.39
2018-05-01T03:37:02.220Z,88.83
2018-05-01T03:39:29.989Z,88.26
2018-05-01T03:41:57.798Z,89.06
2018-05-01T03:44:25.580Z,89.91
2018-05-01T03:46:53.356Z,89.35
2018-05-01T03:49:21.202Z,90.02
2018-05-01T03:51:48.985Z,90.58
2018-05-01T03:54:16.770Z,90.74
2018-05-01T03:56:44.566Z,90.28
2018-05-01T03:59:12.412Z,90.05
2018-05-01T04:01:40.295Z,89.59
2018-05-01T04:04:08.073Z,89.37
2018-05-01T04:06:35.871Z,90.42
2018-05-01T04:09:03.659Z,90.73
2018-05-01T04:11:31.591Z,90.61
2018-05-01T04:13:59.413Z,90.57
2018-05-01T04:16:27.178Z,90.23
2018-05-01T04:18:54.989Z,90.22
2018-05-01T04:21:22.784Z,90.41
2018-05-01T04:23:50.598Z,90.73
2018-05-01T04:26:18.379Z,90.90
2018-05-01T04:28:46.157Z,90.51
2018-05-01T04:31:13.938Z,90.68
2018-05-01T04:33:41.795Z,90.42
2018-05-01T04:36:09.562Z,89.70
2018-05-01T04:38:37.359Z,89.80
2018-05-01T04:41:05.259Z,90.21
2018-05-01T04:43:33.123Z,90.74
2018-05-01T04:46:00.989Z,90.97
2018-05-01T04:48:28.769Z,91.88
2018-05-01T04:50:56.693Z,91.14
2018-05-01T04:53:25.406Z,91.17
2018-05-01T04:55:53.266Z,91.78
2018-05-01T04:58:21.042Z,91.37
2018-05-01T05:00:49.032Z,91.40
2018-05-01T05:03:16.828Z,91.26
2018-05-01T05:05:44.659Z,91.74
2018-05-01T05:08:12.433Z,89.91
2018-05-01T05:10:40.347Z,90.35
2018-05-01T05:13:08.159Z,90.60
2018-05-01T05:15:35.938Z,89.66
2018-05-01T05:18:03.739Z,89.13
2018-05-01T05:20:31.670Z,87.61
2018-05-01T05:22:59.542Z,87.54
2018-05-01T05:25:27.326Z,84.35
2018-05-01T05:27:55.128Z,71.94
2018-05-01T05:30:22.919Z,80.43
2018-05-01T05:32:50.721Z,81.13
2018-05-01T05:35:18.682Z,81.51
2018-05-01T05:37:46.444Z,78.88
2018-05-01T05:40:14.398Z,78.74
2018-05-01T05:42:42.246Z,78.86
2018-05-01T05:45:10.041Z,78.44
2018-05-01T05:47:37.800Z,79.26
2018-05-01T05:50:05.670Z,81.10
2018-05-01T05:52:33.487Z,81.95
2018-05-01T05:55:01.262Z,79.03
2018-05-01T05:57:29.043Z,78.74
2018-05-01T05:59:56.880Z,77.37
2018-05-01T06:02:24.660Z,77.29
2018-05-01T06:04:52.440Z,77.16
2018-05-01T06:07:20.254Z,76.86
2018-05-01T06:09:48.059Z,76.86
2018-05-01T06:12:15.861Z,77.65
2018-05-01T06:14:43.749Z,77.45
2018-05-01T06:17:11.552Z,77.27
2018-05-01T06:19:39.345Z,77.52
2018-05-01T06:22:07.505Z,75.89
2018-05-01T06:24:36.204Z,77.06
2018-05-01T06:27:04.163Z,72.87
2018-05-01T06:29:31.936Z,75.61
2018-05-01T06:31:59.750Z,75.37
2018-05-01T06:34:27.513Z,75.82
2018-05-01T06:36:55.344Z,71.02
2018-05-01T06:39:23.046Z,65.40
2018-05-01T06:41:50.860Z,64.20
2018-05-01T06:44:18.911Z,67.03
2018-05-01T06:46:46.930Z,63.91
2018-05-01T06:49:14.766Z,64.29
2018-05-01T06:51:42.565Z,63.66
2018-05-01T06:54:10.334Z,61.58
2018-05-01T06:56:38.107Z,64.14
2018-05-01T06:59:05.912Z,58.45
2018-05-01T07:01:33.685Z,59.88
2018-05-01T07:04:02.184Z,60.50
2018-05-01T07:06:29.980Z,61.27
2018-05-01T07:08:57.773Z,62.15
2018-05-01T07:11:25.747Z,60.14
2018-05-01T07:13:53.516Z,60.67
2018-05-01T07:16:21.349Z,58.98
2018-05-01T07:18:49.151Z,59.93
2018-05-01T07:21:17.047Z,58.63
2018-05-01T07:23:44.836Z,56.92
2018-05-01T07:26:12.619Z,57.02
2018-05-01T07:28:40.407Z,57.12
2018-05-01T07:31:08.194Z,58.04
2018-05-01T07:33:35.985Z,56.33
2018-05-01T07:36:03.803Z,58.65
2018-05-01T07:38:31.614Z,57.54
2018-05-01T07:41:00.091Z,58.84
2018-05-01T07:43:27.904Z,55.92
2018-05-01T07:45:55.693Z,58.41
2018-05-01T07:48:23.476Z,55.00
2018-05-01T07:50:51.352Z,55.63
2018-05-01T07:53:19.145Z,54.87
2018-05-01T07:55:47.051Z,55.98
2018-05-01T07:58:14.806Z,56.71
2018-05-01T08:00:42.675Z,56.56
2018-05-01T08:03:10.774Z,57.69
2018-05-01T08:05:38.545Z,55.43
2018-05-01T08:08:06.330Z,55.57
2018-05-01T08:10:34.178Z,55.61
2018-05-01T08:13:01.975Z,57.93
2018-05-01T08:15:29.750Z,54.62
2018-05-01T08:17:57.595Z,56.34
2018-05-01T08:20:25.330Z,57.07
2018-05-01T08:22:53.109Z,56.14
2018-05-01T08:25:20.905Z,55.89
2018-05-01T08:27:48.681Z,55.87
2018-05-01T08:30:16.468Z,57.84
2018-05-01T08:32:44.245Z,56.63
2018-05-01T08:35:12.073Z,56.89
2018-05-01T08:37:39.850Z,57.33
2018-05-01T08:40:07.634Z,54.94
2018-05-01T08:42:35.446Z,54.27
2018-05-01T08:45:03.281Z,53.79
2018-05-01T08:47:31.082Z,54.10
2018-05-01T08:49:58.923Z,54.62
2018-05-01T08:52:26.823Z,52.91
2018-05-01T08:54:54.618Z,54.70
2018-05-01T08:57:22.437Z,54.97
2018-05-01T08:59:50.186Z,53.92
2018-05-01T09:02:17.971Z,52.08
2018-05-01T09:04:45.747Z,51.79
2018-05-01T09:07:13.534Z,51.42
2018-05-01T09:09:41.360Z,50.74
2018-05-01T09:12:09.238Z,50.64
2018-05-01T09:14:37.012Z,50.54
2018-05-01T09:17:04.911Z,50.05
2018-05-01T09:19:32.675Z,53.18
2018-05-01T09:22:00.492Z,51.80
2018-05-01T09:24:28.307Z,53.23
2018-05-01T09:26:56.093Z,50.49
2018-05-01T09:29:23.980Z,49.60
2018-05-01T09:31:51.800Z,50.06
2018-05-01T09:34:19.579Z,50.07
2018-05-01T09:36:47.355Z,51.89
2018-05-01T09:39:15.150Z,49.04
2018-05-01T09:41:42.962Z,49.45
2018-05-01T09:44:10.780Z,48.01
2018-05-01T09:46:38.542Z,47.58
2018-05-01T09:49:06.357Z,48.93
2018-05-01T09:51:34.132Z,49.09
2018-05-01T09:54:02.442Z,48.79
2018-05-01T09:56:30.743Z,48.04
2018-05-01T09:58:59.076Z,47.31
2018-05-01T10:01:27.393Z,45.30
2018-05-01T10:03:55.730Z,43.18
2018-05-01T10:06:24.042Z,43.39
2018-05-01T10:08:52.354Z,45.98
2018-05-01T10:11:20.662Z,47.03
2018-05-01T10:13:48.998Z,44.61
2018-05-01T10:16:17.308Z,44.61
2018-05-01T10:18:45.630Z,44.11
2018-05-01T10:21:13.996Z,43.33
2018-05-01T10:23:42.371Z,46.05
2018-05-01T10:26:10.668Z,44.18
2018-05-01T10:28:39.121Z,47.45
2018-05-01T10:31:07.405Z,42.49
2018-05-01T10:33:35.861Z,39.38
2018-05-01T10:36:04.104Z,40.03
2018-05-01T10:38:32.545Z,41.85
2018-05-01T10:41:00.774Z,39.30
2018-05-01T10:43:29.096Z,38.23
2018-05-01T10:45:57.448Z,38.83
2018-05-01T10:48:25.774Z,38.58
2018-05-01T10:50:54.321Z,40.06
2018-05-01T10:53:22.678Z,38.30
2018-05-01T10:55:51.000Z,39.58
2018-05-01T10:58:19.391Z,39.78
2018-05-01T11:00:47.770Z,37.30
2018-05-01T11:03:16.071Z,36.71
2018-05-01T11:05:44.391Z,36.55
2018-05-01T11:08:12.704Z,36.08
2018-05-01T11:10:41.213Z,36.43
2018-05-01T11:13:09.547Z,37.23
2018-05-01T11:15:38.122Z,37.94
2018-05-01T11:18:06.458Z,37.87
2018-05-01T11:20:35.624Z,39.95
2018-05-01T11:23:03.954Z,38.09
2018-05-01T11:25:32.352Z,36.81
2018-05-01T11:28:00.681Z,36.81
2018-05-01T11:30:29.008Z,37.02
2018-05-01T11:32:57.351Z,39.21
2018-05-01T11:35:25.671Z,38.15
2018-05-01T11:37:53.982Z,38.54
2018-05-01T11:40:22.291Z,37.52
2018-05-01T11:42:50.621Z,38.39
2018-05-01T11:45:18.932Z,41.67
2018-05-01T11:47:47.254Z,38.08
2018-05-01T11:50:15.582Z,38.55
2018-05-01T11:52:44.202Z,38.15
2018-05-01T11:55:12.526Z,39.97
2018-05-01T11:57:40.865Z,37.82
2018-05-01T12:00:09.258Z,35.40
2018-05-01T12:02:37.626Z,34.61
2018-05-01T12:05:05.867Z,34.30
2018-05-01T12:07:34.199Z,35.55
2018-05-01T12:10:02.521Z,34.73
2018-05-01T12:12:30.846Z,35.88
2018-05-01T12:14:59.181Z,34.47
2018-05-01T12:17:27.529Z,34.47
2018-05-01T12:19:55.854Z,35.44
2018-05-01T12:22:24.168Z,34.52
2018-05-01T12:24:52.908Z,32.53
2018-05-01T12:27:21.216Z,33.95
2018-05-01T12:29:49.660Z,33.91
2018-05-01T12:32:17.911Z,33.68
2018-05-01T12:34:46.289Z,29.60
2018-05-01T12:37:14.613Z,30.36
2018-05-01T12:39:43.004Z,29.57
2018-05-01T12:42:11.331Z,30.44
2018-05-01T12:44:39.718Z,29.68
2018-05-01T12:47:08.038Z,29.69
2018-05-01T12:49:36.377Z,30.70
2018-05-01T12:52:04.692Z,30.08
2018-05-01T12:54:33.036Z,30.03
2018-05-01T12:57:01.399Z,30.34
2018-05-01T12:59:29.706Z,32.10
2018-05-01T13:01:58.025Z,30.81
2018-05-01T13:04:26.343Z,32.53
2018-05-01T13:06:54.678Z,32.61
2018-05-01T13:09:23.052Z,29.87
2018-05-01T13:11:51.375Z,29.90
2018-05-01T13:14:19.706Z,30.92
2018-05-01T13:16:48.050Z,29.86
2018-05-01T13:19:16.357Z,29.11
2018-05-01T13:21:44.697Z,30.21
2018-05-01T13:24:13.024Z,32.69
2018-05-01T13:26:41.481Z,33.92
2018-05-01T13:29:09.796Z,33.46
2018-05-01T13:31:38.229Z,33.48
2018-05-01T13:34:06.532Z,33.94
2018-05-01T13:36:34.887Z,35.54
2018-05-01T13:39:03.227Z,32.18
2018-05-01T13:41:31.564Z,31.59
2018-05-01T13:43:59.860Z,30.86
2018-05-01T13:46:28.247Z,31.22
2018-05-01T13:48:56.659Z,30.58
2018-05-01T13:51:24.925Z,29.78
2018-05-01T13:53:53.258Z,29.91
2018-05-01T13:56:21.575Z,29.39
2018-05-01T13:58:50.128Z,30.20
2018-05-01T14:01:18.496Z,29.68
2018-05-01T14:03:46.812Z,30.51
2018-05-01T14:06:15.149Z,32.23
2018-05-01T14:08:43.491Z,30.17
2018-05-01T14:11:11.796Z,30.64
2018-05-01T14:13:40.257Z,29.36
2018-05-01T14:16:08.639Z,30.84
2018-05-01T14:18:36.981Z,29.29
2018-05-01T14:21:05.333Z,29.79
2018-05-01T14:23:33.644Z,28.68
2018-05-01T14:26:02.064Z,30.18
2018-05-01T14:28:30.400Z,30.34
2018-05-01T14:30:58.710Z,29.47
2018-05-01T14:33:27.098Z,29.50
2018-05-01T14:35:55.695Z,30.21
2018-05-01T14:38:24.006Z,31.58
2018-05-01T14:40:52.387Z,31.28
2018-05-01T14:43:21.062Z,31.39
2018-05-01T14:45:49.383Z,33.81
2018-05-01T14:48:17.688Z,32.48
2018-05-01T14:50:46.026Z,30.36
2018-05-01T14:53:14.417Z,33.67
2018-05-01T14:55:43.179Z,33.00
2018-05-01T14:58:11.711Z,32.67
2018-05-01T15:00:40.048Z,31.25
2018-05-01T15:03:08.356Z,31.57
2018-05-01T15:05:36.703Z,31.27
2018-05-01T15:08:05.092Z,33.35
2018-05-01T15:10:33.528Z,31.04
2018-05-01T15:13:01.891Z,30.97
2018-05-01T15:15:30.219Z,30.93
2018-05-01T15:17:58.581Z,31.69
2018-05-01T15:20:26.892Z,32.19
2018-05-01T15:22:55.207Z,31.71
2018-05-01T15:25:23.562Z,34.09
2018-05-01T15:27:51.863Z,34.50
2018-05-01T15:30:20.214Z,36.58
2018-05-01T15:32:48.521Z,37.44
2018-05-01T15:35:16.837Z,37.47
2018-05-01T15:37:45.148Z,35.83
2018-05-01T15:40:13.491Z,35.68
2018-05-01T15:42:41.815Z,37.52
2018-05-01T15:45:10.172Z,37.90
2018-05-01T15:47:38.500Z,36.74
2018-05-01T15:50:06.825Z,34.81
2018-05-01T15:52:35.134Z,35.99
2018-05-01T15:55:03.474Z,36.64
2018-05-01T15:57:32.038Z,36.99
2018-05-01T16:00:00.358Z,36.77
2018-05-01T16:02:28.791Z,36.59
2018-05-01T16:04:57.143Z,36.22
2018-05-01T16:07:25.458Z,38.22
2018-05-01T16:09:53.765Z,38.50
2018-05-01T16:12:22.121Z,38.27
2018-05-01T16:14:50.430Z,38.52
2018-05-01T16:17:18.734Z,37.34
2018-05-01T16:19:47.063Z,36.94
2018-05-01T16:22:15.392Z,38.13
2018-05-01T16:24:43.731Z,38.33
2018-05-01T16:27:12.079Z,38.80
2018-05-01T16:29:40.399Z,40.87
2018-05-01T16:32:08.720Z,40.66
2018-05-01T16:34:37.043Z,40.18
2018-05-01T16:37:08.717Z,39.35
2018-05-01T16:39:37.075Z,40.08
2018-05-01T16:42:05.408Z,41.64
2018-05-01T16:44:33.763Z,41.83
2018-05-01T16:47:02.107Z,39.94
2018-05-01T16:49:30.644Z,40.71
2018-05-01T16:51:58.950Z,40.61
2018-05-01T16:54:27.288Z,42.02
2018-05-01T16:56:55.655Z,41.80
2018-05-01T16:59:23.945Z,41.01
2018-05-01T17:01:52.258Z,42.12
2018-05-01T17:04:20.671Z,42.89
2018-05-01T17:06:49.134Z,40.89
2018-05-01T17:09:17.537Z,41.61
2018-05-01T17:11:45.860Z,41.92
2018-05-01T17:14:14.201Z,41.30
2018-05-01T17:16:42.545Z,42.00
2018-05-01T17:19:15.303Z,42.13
2018-05-01T17:21:44.828Z,43.13
2018-05-01T17:24:13.167Z,43.01
2018-05-01T17:26:41.574Z,42.66
2018-05-01T17:29:09.944Z,42.39
2018-05-01T17:31:38.224Z,43.27
2018-05-01T17:34:06.522Z,43.93
2018-05-01T17:36:34.842Z,43.82
2018-05-01T17:39:03.218Z,42.92
2018-05-01T17:41:31.557Z,43.32
2018-05-01T17:43:59.905Z,43.48
2018-05-01T17:46:28.286Z,44.39
2018-05-01T17:48:56.626Z,44.73
2018-05-01T17:51:25.104Z,44.85
2018-05-01T17:53:53.471Z,43.73
2018-05-01T17:56:21.777Z,45.17
2018-05-01T17:58:50.095Z,45.18
2018-05-01T18:01:18.427Z,46.46
2018-05-01T18:03:46.758Z,46.67
2018-05-01T18:06:15.147Z,47.90
2018-05-01T18:08:43.708Z,48.97
2018-05-01T18:11:12.032Z,52.20
2018-05-01T18:13:40.573Z,50.36
2018-05-01T18:16:08.871Z,51.54
2018-05-01T18:18:37.261Z,51.88
2018-05-01T18:21:05.546Z,48.91
2018-05-01T18:23:33.876Z,49.42
2018-05-01T18:26:02.199Z,50.01
2018-05-01T18:28:30.537Z,50.43
2018-05-01T18:30:59.191Z,49.63
2018-05-01T18:33:27.564Z,49.36
2018-05-01T18:35:56.564Z,50.13
2018-05-01T18:38:24.901Z,51.33
2018-05-01T18:40:53.679Z,51.81
2018-05-01T18:43:22.004Z,52.48
2018-05-01T18:45:50.310Z,53.28
2018-05-01T18:48:18.669Z,53.58
2018-05-01T18:50:47.037Z,54.49
2018-05-01T18:53:15.328Z,54.12
2018-05-01T18:55:43.697Z,53.45
2018-05-01T18:58:12.085Z,54.42
2018-05-01T19:00:40.517Z,54.26
2018-05-01T19:03:08.872Z,56.22
2018-05-01T19:05:37.194Z,56.95
2018-05-01T19:08:05.570Z,56.68
2018-05-01T19:10:33.992Z,58.16
2018-05-01T19:13:02.324Z,57.02
2018-05-01T19:15:30.763Z,57.81
2018-05-01T19:17:59.100Z,57.63
2018-05-01T19:20:27.427Z,59.29
2018-05-01T19:22:55.762Z,58.70
2018-05-01T19:25:24.113Z,59.07
2018-05-01T19:27:52.454Z,58.98
2018-05-01T19:30:20.807Z,58.50
2018-05-01T19:32:49.122Z,59.15
2018-05-01T19:35:17.439Z,58.91
2018-05-01T19:37:45.780Z,59.86
2018-05-01T19:40:14.096Z,59.93
2018-05-01T19:42:42.426Z,60.42
2018-05-01T19:45:10.750Z,61.14
2018-05-01T19:47:39.075Z,62.16
2018-05-01T19:50:07.415Z,62.74
2018-05-01T19:52:35.745Z,62.85
2018-05-01T19:55:04.088Z,63.22
2018-05-01T19:57:32.412Z,62.63
2018-05-01T20:00:01.042Z,63.00
2018-05-01T20:02:29.416Z,64.49
2018-05-01T20:04:57.731Z,64.58
2018-05-01T20:07:26.106Z,65.15
2018-05-01T20:09:54.427Z,64.61
2018-05-01T20:12:22.765Z,64.72
2018-05-01T20:14:51.083Z,65.06
2018-05-01T20:17:19.394Z,66.33
2018-05-01T20:19:47.699Z,66.80
